createdAt,value
2022-08-07T00:02:41.615Z,97055.00
2022-08-07T00:06:51.973Z,97060.00
2022-08-07T00:10:58.161Z,97063.00
2022-08-07T00:15:01.687Z,97060.00
2022-08-07T00:19:05.680Z,97063.00
2022-08-07T00:23:09.103Z,97069.00
2022-08-07T00:27:13.639Z,97068.00
2022-08-07T00:31:18.484Z,97066.00
2022-08-07T00:35:23.232Z,97057.00
2022-08-07T00:39:26.600Z,97058.00
2022-08-07T00:44:00.198Z,97048.00
2022-08-07T00:48:09.550Z,97059.00
2022-08-07T00:52:13.908Z,97045.00
2022-08-07T00:56:21.001Z,97054.00
2022-08-07T01:00:25.796Z,97054.00
2022-08-07T01:04:30.347Z,97051.00
2022-08-07T01:08:35.998Z,97053.00
2022-08-07T01:12:53.903Z,97050.00
2022-08-07T01:17:00.275Z,97045.00
2022-08-07T01:21:22.433Z,97050.00
2022-08-07T01:25:53.613Z,97052.00
2022-08-07T01:29:50.485Z,97041.00
2022-08-07T01:33:56.265Z,97043.00
2022-08-07T01:38:02.344Z,97044.00
2022-08-07T01:42:37.675Z,97056.00
2022-08-07T01:46:31.198Z,97050.00
2022-08-07T01:50:37.755Z,97063.00
2022-08-07T01:54:47.234Z,97046.00
2022-08-07T01:58:55.498Z,97039.00
2022-08-07T02:03:11.948Z,97029.00
2022-08-07T02:07:44.997Z,97030.00
2022-08-07T02:12:03.704Z,97025.00
2022-08-07T02:16:11.826Z,97023.00
2022-08-07T02:20:23.530Z,97024.00
2022-08-07T02:24:29.379Z,97014.00
2022-08-07T02:28:36.408Z,97029.00
2022-08-07T02:33:07.187Z,97017.00
2022-08-07T02:37:09.411Z,97027.00
2022-08-07T02:41:14.375Z,97023.00
2022-08-07T02:46:00.330Z,97013.00
2022-08-07T02:49:58.285Z,97002.00
2022-08-07T02:54:04.432Z,97003.00
2022-08-07T02:58:11.834Z,97005.00
2022-08-07T03:02:17.224Z,97001.00
2022-08-07T03:06:26.065Z,96985.00
2022-08-07T03:10:41.004Z,96987.00
2022-08-07T03:14:52.130Z,96988.00
2022-08-07T03:18:57.531Z,96988.00
2022-08-07T03:23:01.129Z,96984.00
2022-08-07T03:27:06.204Z,96987.00
2022-08-07T03:31:24.846Z,97001.00
2022-08-07T03:35:50.374Z,96986.00
2022-08-07T03:40:13.458Z,96990.00
2022-08-07T03:44:21.585Z,96991.00
2022-08-07T03:49:02.112Z,96989.00
2022-08-07T03:53:02.340Z,96996.00
2022-08-07T03:57:07.670Z,96989.00
2022-08-07T04:01:13.907Z,96984.00
2022-08-07T04:05:28.725Z,96988.00
2022-08-07T04:09:50.177Z,96996.00
2022-08-07T04:14:11.025Z,97000.00
2022-08-07T04:18:57.907Z,96996.00
2022-08-07T04:22:53.229Z,97001.00
2022-08-07T04:26:59.792Z,96993.00
2022-08-07T04:31:04.535Z,97008.00
2022-08-07T04:35:11.990Z,97004.00
2022-08-07T04:39:17.650Z,97007.00
2022-08-07T04:44:10.082Z,97010.00
2022-08-07T04:48:06.143Z,97014.00
2022-08-07T04:52:25.126Z,97018.00
2022-08-07T04:58:15.549Z,97010.00
2022-08-07T05:01:15.776Z,97017.00
2022-08-07T05:05:53.344Z,97017.00
2022-08-07T05:09:59.463Z,97023.00
2022-08-07T05:14:55.860Z,97024.00
2022-08-07T05:18:37.852Z,97024.00
2022-08-07T05:22:45.884Z,97017.00
2022-08-07T05:26:54.622Z,97019.00
2022-08-07T05:30:59.311Z,97014.00
2022-08-07T05:35:07.794Z,97019.00
2022-08-07T05:40:05.925Z,97014.00
2022-08-07T05:43:50.191Z,97014.00
2022-08-07T05:48:03.199Z,97019.00
2022-08-07T05:52:11.606Z,97017.00
2022-08-07T05:56:16.766Z,97015.00
2022-08-07T06:00:20.333Z,97020.00
2022-08-07T06:04:29.781Z,97019.00
2022-08-07T06:08:40.435Z,97019.00
2022-08-07T06:12:45.870Z,97022.00
2022-08-07T06:16:56.241Z,97021.00
2022-08-07T06:22:16.273Z,97019.00
2022-08-07T06:25:26.548Z,97017.00
2022-08-07T06:29:30.306Z,97017.00
2022-08-07T06:33:33.978Z,97019.00
2022-08-07T06:37:43.418Z,97016.00
2022-08-07T06:42:01.951Z,97019.00
2022-08-07T06:46:06.554Z,97024.00
2022-08-07T06:50:15.979Z,97014.00
2022-08-07T06:55:32.932Z,97020.00
2022-08-07T07:00:14.843Z,97026.00
2022-08-07T07:03:17.179Z,97018.00
2022-08-07T07:08:00.050Z,97020.00
2022-08-07T07:12:09.881Z,97015.00
2022-08-07T07:16:19.656Z,97015.00
2022-08-07T07:20:26.939Z,97018.00
2022-08-07T07:24:30.593Z,97020.00
2022-08-07T07:29:23.532Z,97015.00
2022-08-07T07:33:07.630Z,97016.00
2022-08-07T07:37:22.193Z,97016.00
2022-08-07T07:41:50.816Z,97013.00
2022-08-07T07:46:37.328Z,97012.00
2022-08-07T07:50:38.281Z,97005.00
2022-08-07T07:54:50.671Z,97003.00
2022-08-07T07:58:57.213Z,97010.00
2022-08-07T08:04:05.942Z,97004.00
2022-08-07T08:07:59.671Z,97003.00
2022-08-07T08:12:06.085Z,96998.00
2022-08-07T08:16:12.671Z,97002.00
2022-08-07T08:20:23.162Z,96996.00
2022-08-07T08:25:04.513Z,96988.00
2022-08-07T08:29:19.480Z,96984.00
2022-08-07T08:33:28.920Z,96977.00
2022-08-07T08:38:01.337Z,96988.00
2022-08-07T08:42:06.464Z,96985.00
2022-08-07T08:46:20.532Z,96979.00
2022-08-07T08:50:39.315Z,96983.00
2022-08-07T08:55:09.398Z,96977.00
2022-08-07T08:59:24.372Z,96971.00
2022-08-07T09:03:47.470Z,96972.00
2022-08-07T09:07:57.958Z,96973.00
2022-08-07T09:12:20.270Z,96970.00
2022-08-07T09:16:50.569Z,96966.00
2022-08-07T09:21:05.230Z,96968.00
2022-08-07T09:25:17.208Z,96972.00
2022-08-07T09:30:03.368Z,96972.00
2022-08-07T09:34:09.705Z,96966.00
2022-08-07T09:38:21.076Z,96973.00
2022-08-07T09:42:41.872Z,96958.00
2022-08-07T09:47:51.688Z,96957.00
2022-08-07T09:52:10.322Z,96953.00
2022-08-07T09:56:34.107Z,96956.00
2022-08-07T10:01:01.927Z,96955.00
2022-08-07T10:06:00.052Z,96951.00
2022-08-07T10:10:21.970Z,96943.00
2022-08-07T10:14:54.240Z,96933.00
2022-08-07T10:19:22.883Z,96931.00
2022-08-07T10:24:05.346Z,96919.00
2022-08-07T10:28:29.112Z,96928.00
2022-08-07T10:32:52.803Z,96913.00
2022-08-07T10:37:12.506Z,96914.00
2022-08-07T10:41:46.865Z,96909.00
2022-08-07T10:45:57.593Z,96909.00
2022-08-07T10:50:07.619Z,96897.00
2022-08-07T10:54:19.936Z,96901.00
2022-08-07T10:58:40.772Z,96897.00
2022-08-07T11:03:02.074Z,96900.00
2022-08-07T11:07:56.164Z,96895.00
2022-08-07T11:11:51.712Z,96893.00
2022-08-07T11:15:58.526Z,96888.00
2022-08-07T11:20:07.741Z,96883.00
2022-08-07T11:24:19.533Z,96883.00
2022-08-07T11:28:30.015Z,96880.00
2022-08-07T11:32:40.622Z,96871.00
2022-08-07T11:36:56.318Z,96871.00
2022-08-07T11:41:02.486Z,96866.00
2022-08-07T11:45:20.473Z,96869.00
2022-08-07T11:50:18.696Z,96870.00
2022-08-07T11:54:25.458Z,96867.00
2022-08-07T11:58:39.546Z,96857.00
2022-08-07T12:03:44.805Z,96858.00
2022-08-07T12:07:53.476Z,96862.00
2022-08-07T12:12:11.640Z,96864.00
2022-08-07T12:16:30.051Z,96857.00
2022-08-07T12:20:37.783Z,96844.00
2022-08-07T12:25:10.624Z,96848.00
2022-08-07T12:29:43.324Z,96842.00
2022-08-07T12:34:00.984Z,96844.00
2022-08-07T12:38:10.714Z,96839.00
2022-08-07T12:42:32.330Z,96830.00
2022-08-07T12:46:56.399Z,96833.00
2022-08-07T12:51:13.248Z,96824.00
2022-08-07T12:55:41.208Z,96814.00
2022-08-07T12:59:55.838Z,96824.00
2022-08-07T13:04:34.010Z,96814.00
2022-08-07T13:08:50.846Z,96816.00
2022-08-07T13:13:09.354Z,96810.00
2022-08-07T13:17:21.196Z,96810.00
2022-08-07T13:21:37.404Z,96803.00
2022-08-07T13:26:00.878Z,96800.00
2022-08-07T13:30:19.411Z,96794.00
2022-08-07T13:34:44.754Z,96792.00
2022-08-07T13:39:11.101Z,96789.00
2022-08-07T13:43:17.160Z,96782.00
2022-08-07T13:48:08.419Z,96777.00
2022-08-07T13:52:04.555Z,96768.00
2022-08-07T13:56:12.280Z,96768.00
2022-08-07T14:00:26.270Z,96755.00
2022-08-07T14:04:36.028Z,96751.00
2022-08-07T14:08:48.759Z,96758.00
2022-08-07T14:13:03.664Z,96747.00
2022-08-07T14:17:32.133Z,96756.00
2022-08-07T14:22:04.283Z,96739.00
2022-08-07T14:26:02.304Z,96736.00
2022-08-07T14:30:11.580Z,96748.00
2022-08-07T14:34:20.293Z,96747.00
2022-08-07T14:38:30.750Z,96742.00
2022-08-07T14:43:00.659Z,96734.00
2022-08-07T14:47:14.156Z,96743.00
2022-08-07T14:52:04.790Z,96732.00
2022-08-07T14:55:56.094Z,96722.00
2022-08-07T15:00:06.156Z,96724.00
2022-08-07T15:04:28.805Z,96722.00
2022-08-07T15:08:47.575Z,96728.00
2022-08-07T15:17:32.669Z,96726.00
2022-08-07T15:22:04.592Z,96727.00
2022-08-07T15:26:10.310Z,96717.00
2022-08-07T15:30:26.375Z,96718.00
2022-08-07T15:39:05.720Z,96720.00
2022-08-07T15:43:52.812Z,96709.00
2022-08-07T15:48:00.807Z,96710.00
2022-08-07T15:52:07.858Z,96715.00
2022-08-07T15:56:16.138Z,96707.00
2022-08-07T16:00:31.663Z,96708.00
2022-08-07T16:04:39.177Z,96700.00
2022-08-07T16:08:45.460Z,96701.00
2022-08-07T16:13:05.664Z,96698.00
2022-08-07T16:18:00.827Z,96687.00
2022-08-07T16:22:17.742Z,96692.00
2022-08-07T16:26:59.368Z,96688.00
2022-08-07T16:31:50.796Z,96696.00
2022-08-07T16:35:52.032Z,96699.00
2022-08-07T16:40:33.365Z,96699.00
2022-08-07T16:45:15.161Z,96682.00
2022-08-07T16:50:28.508Z,96689.00
2022-08-07T16:54:32.524Z,96703.00
2022-08-07T16:59:11.026Z,96692.00
2022-08-07T17:03:58.056Z,96696.00
2022-08-07T17:07:58.025Z,96706.00
2022-08-07T17:12:34.310Z,96702.00
2022-08-07T17:16:44.155Z,96706.00
2022-08-07T17:20:59.919Z,96705.00
2022-08-07T17:25:16.926Z,96706.00
2022-08-07T17:30:15.340Z,96701.00
2022-08-07T17:34:33.402Z,96715.00
2022-08-07T17:38:33.637Z,96712.00
2022-08-07T17:42:59.096Z,96719.00
2022-08-07T17:47:08.546Z,96719.00
2022-08-07T17:51:21.596Z,96726.00
2022-08-07T17:55:56.625Z,96721.00
2022-08-07T18:00:03.495Z,96718.00
2022-08-07T18:04:24.535Z,96725.00
2022-08-07T18:09:01.269Z,96726.00
2022-08-07T18:13:16.647Z,96728.00
2022-08-07T18:18:46.614Z,96735.00
2022-08-07T18:22:05.375Z,96739.00
2022-08-07T18:26:16.374Z,96743.00
2022-08-07T18:30:37.000Z,96743.00
2022-08-07T18:35:07.935Z,96748.00
2022-08-07T18:40:08.523Z,96751.00
2022-08-07T18:43:57.820Z,96758.00
2022-08-07T18:48:09.423Z,96754.00
2022-08-07T18:52:54.250Z,96767.00
2022-08-07T18:57:30.629Z,96768.00
2022-08-07T19:02:19.755Z,96770.00
2022-08-07T19:06:10.262Z,96777.00
2022-08-07T19:10:23.973Z,96787.00
2022-08-07T19:14:51.937Z,96799.00
2022-08-07T19:19:01.357Z,96807.00
2022-08-07T19:23:18.466Z,96817.00
2022-08-07T19:28:30.306Z,96821.00
2022-08-07T19:32:17.428Z,96828.00
2022-08-07T19:36:27.728Z,96830.00
2022-08-07T19:40:50.437Z,96826.00
2022-08-07T19:44:56.734Z,96828.00
2022-08-07T19:49:08.524Z,96828.00
2022-08-07T19:54:35.361Z,96829.00
2022-08-07T19:58:03.262Z,96825.00
2022-08-07T20:02:10.161Z,96831.00
2022-08-07T20:06:28.462Z,96833.00
2022-08-07T20:10:54.802Z,96825.00
2022-08-07T20:15:02.733Z,96818.00
2022-08-07T20:19:11.219Z,96814.00
2022-08-07T20:23:32.921Z,96821.00
2022-08-07T20:27:45.985Z,96822.00
2022-08-07T20:31:52.427Z,96830.00
2022-08-07T20:36:03.350Z,96829.00
2022-08-07T20:40:32.338Z,96826.00
2022-08-07T20:44:35.155Z,96836.00
2022-08-07T20:48:39.625Z,96827.00
2022-08-07T20:53:03.178Z,96828.00
2022-08-07T20:57:10.390Z,96825.00
2022-08-07T21:01:19.319Z,96822.00
2022-08-07T21:05:42.599Z,96819.00
2022-08-07T21:10:00.350Z,96822.00
2022-08-07T21:14:33.459Z,96817.00
2022-08-07T21:18:41.175Z,96821.00
2022-08-07T21:22:53.493Z,96819.00
2022-08-07T21:27:18.580Z,96815.00
2022-08-07T21:32:42.377Z,96815.00
2022-08-07T21:36:11.991Z,96817.00
2022-08-07T21:40:41.903Z,96809.00
2022-08-07T21:44:54.687Z,96809.00
2022-08-07T21:49:04.762Z,96820.00
2022-08-07T21:53:19.417Z,96806.00
2022-08-07T21:57:39.709Z,96812.00
2022-08-07T22:02:10.340Z,96815.00
2022-08-07T22:06:30.961Z,96820.00
2022-08-07T22:10:35.822Z,96816.00
2022-08-07T22:14:59.566Z,96810.00
2022-08-07T22:19:16.193Z,96812.00
2022-08-07T22:23:23.944Z,96810.00
2022-08-07T22:27:56.282Z,96814.00
2022-08-07T22:32:06.115Z,96815.00
2022-08-07T22:36:21.905Z,96818.00
2022-08-07T22:40:29.645Z,96817.00
2022-08-07T22:44:35.247Z,96817.00
2022-08-07T22:49:01.461Z,96818.00
2022-08-07T22:54:06.288Z,96820.00
2022-08-07T22:58:09.943Z,96828.00
2022-08-07T23:02:42.646Z,96827.00
2022-08-07T23:07:00.426Z,96833.00
2022-08-07T23:11:19.057Z,96831.00
2022-08-07T23:16:05.523Z,96832.00
2022-08-07T23:20:21.536Z,96826.00
2022-08-07T23:24:51.595Z,96829.00
2022-08-07T23:29:17.145Z,96828.00
2022-08-07T23:34:36.540Z,96834.00
2022-08-07T23:38:42.446Z,96830.00
2022-08-07T23:43:03.715Z,96826.00
2022-08-07T23:47:42.441Z,96827.00
2022-08-07T23:53:01.447Z,96830.00
2022-08-07T23:56:21.634Z,96832.00
